Duesseldorf, Germany

6:10 AM CET on October 26, 2014 (GMT +0100)
Dusseldorf | Change Station
CLOSE
Current Station
Airport
Location: Duesseldorf,
Elevation: 144 ft
Nearby Weather Stations

Elev 144 ft 51.30 °N, 6.77 °E | Updated 20 minutes ago

Mostly Cloudy
Mostly Cloudy
52 °F
Feels Like 52 °F
N
6
Wind Variable Wind from South

Today
High -- | Low -- °F
--% Chance of Precip.
Yesterday
High -- | Low -- °F
Precip. -- in
7:15 AM 5:17 PM
Waxing Crescent, 6% visible
Pressure 30.24 in
Visibility 6.2 miles
Clouds Few 2200 ft
Mostly Cloudy 4200 ft
Dew Point 50 °F
Humidity 94%
Rainfall 0.00 in
Snow Depth Not available.
UV 0 out of 12
Pollen Not available.
Air Quality Not available.
Flu Activity Not available.
METAR EDDL 260450Z 19005KT 9999 FEW022 BKN042 11/10 Q1024 NOSIG

More Conditions Fewer Conditions

Pressure 30.24 in
Visibility 6.2 miles
Clouds Few 2200 ft
Mostly Cloudy 4200 ft
Dew Point 50 °F
Humidity 94%
Rainfall 0.00 in
Snow Depth Not available.
UV 0 out of 12
Pollen Not available.
Air Quality Not available.
Flu Activity Not available.
METAR EDDL 260450Z 19005KT 9999 FEW022 BKN042 11/10 Q1024 NOSIG

More Conditions Fewer Conditions

10-Day Weather Forecast

Almanac

Astronomy

Oct. 26, 2014 Rise Set
Actual Time 7:15 AM CET 5:17 PM CET
Civil Twilight 6:40 AM CET 5:52 PM CET
Nautical Twilight 6:01 AM CET 6:31 PM CET
Astronomical Twilight 5:23 AM CET 7:09 PM CET
Moon 9:49 AM CET 7:03 PM CET
Length of Visible Light 11h 11m
Length of Day
10h 02m
Tomorrow will be 3m 40s shorter.
Waxing Crescent, 6% of the Moon is Illuminated
Today
Waxing Crescent
Oct 30
First Quarter
Nov 6
Full
Nov 14
Last Quarter
Nov 22
New

Yesterday's Extremes

Country Highs Country Lows

Community

WunderPhotos

Upload Photos

1,765,111 photos uploaded!

Nearby

Snow Depth

Not available.

Earthquake Activity

City Distance Mag. Time & Date
No recent earthquake activity has been reported nearby.
Minimum magnitude displayed is 2.5.

Coastal Water Temperatures

Place Temperature
No Stations Reporting

Nearby Weather Stations